createdAt,value
2023-01-20T00:01:28.963Z,1.20
2023-01-20T00:03:56.921Z,1.03
2023-01-20T00:06:25.283Z,1.47
2023-01-20T00:08:53.400Z,3.80
2023-01-20T00:11:21.066Z,1.40
2023-01-20T00:13:48.731Z,1.20
2023-01-20T00:16:16.148Z,0.97
2023-01-20T00:18:43.480Z,0.90
2023-01-20T00:21:12.448Z,1.07
2023-01-20T00:23:40.572Z,1.00
2023-01-20T00:26:09.041Z,1.33
2023-01-20T00:28:37.004Z,1.30
2023-01-20T00:31:14.672Z,1.93
2023-01-20T00:33:42.469Z,1.10
2023-01-20T00:36:10.443Z,1.40
2023-01-20T00:38:37.887Z,1.03
2023-01-20T00:41:05.560Z,1.53
2023-01-20T00:43:33.000Z,1.03
2023-01-20T00:46:00.281Z,1.10
2023-01-20T00:48:27.603Z,1.10
2023-01-20T00:50:55.088Z,1.20
2023-01-20T00:53:22.761Z,1.10
2023-01-20T00:55:50.361Z,1.10
2023-01-20T00:58:17.806Z,1.13
2023-01-20T01:00:47.715Z,0.93
2023-01-20T01:03:15.524Z,0.70
2023-01-20T01:05:43.015Z,1.00
2023-01-20T01:08:10.483Z,0.87
2023-01-20T01:10:37.804Z,0.90
2023-01-20T01:13:05.748Z,0.87
2023-01-20T01:15:33.387Z,1.07
2023-01-20T01:18:00.918Z,0.80
2023-01-20T01:20:29.441Z,0.70
2023-01-20T01:22:57.008Z,0.77
2023-01-20T01:25:24.442Z,0.83
2023-01-20T01:27:51.816Z,0.53
2023-01-20T01:30:19.200Z,0.90
2023-01-20T01:32:46.521Z,0.90
2023-01-20T01:35:15.268Z,0.97
2023-01-20T01:37:42.766Z,0.70
2023-01-20T01:40:10.606Z,0.90
2023-01-20T01:42:38.046Z,0.60
2023-01-20T01:45:11.791Z,0.67
2023-01-20T01:47:41.483Z,0.87
2023-01-20T01:50:10.246Z,0.77
2023-01-20T01:52:37.730Z,0.73
2023-01-20T01:55:05.165Z,0.93
2023-01-20T01:57:32.889Z,0.70
2023-01-20T02:00:00.365Z,0.63
2023-01-20T02:02:27.723Z,0.80
2023-01-20T02:04:55.208Z,0.70
2023-01-20T02:07:22.765Z,0.80
2023-01-20T02:09:50.006Z,0.60
2023-01-20T02:12:19.606Z,0.70
2023-01-20T02:14:49.402Z,0.80
2023-01-20T02:17:45.884Z,1.03
2023-01-20T02:20:24.052Z,0.60
2023-01-20T02:22:54.046Z,0.73
2023-01-20T02:25:23.964Z,0.63
2023-01-20T02:28:09.681Z,0.73
2023-01-20T02:30:59.371Z,0.70
2023-01-20T02:33:26.763Z,0.90
2023-01-20T02:35:56.607Z,0.50
2023-01-20T02:38:50.088Z,0.67
2023-01-20T02:41:17.457Z,0.50
2023-01-20T02:43:49.408Z,0.63
2023-01-20T02:46:33.209Z,0.70
2023-01-20T02:49:29.801Z,0.60
2023-01-20T02:52:06.249Z,0.60
2023-01-20T02:54:35.005Z,0.50
2023-01-20T02:57:03.251Z,0.70
2023-01-20T02:59:33.483Z,0.60
2023-01-20T03:02:05.015Z,0.67
2023-01-20T03:04:39.243Z,0.70
2023-01-20T03:07:06.601Z,0.70
2023-01-20T03:09:38.820Z,0.60
2023-01-20T03:12:12.848Z,0.80
2023-01-20T03:14:40.245Z,1.00
2023-01-20T03:17:07.640Z,0.53
2023-01-20T03:19:35.895Z,0.60
2023-01-20T03:22:03.401Z,0.50
2023-01-20T03:24:31.724Z,0.50
2023-01-20T03:26:59.603Z,0.63
2023-01-20T03:29:27.003Z,0.60
2023-01-20T03:31:58.161Z,0.70
2023-01-20T03:34:27.322Z,0.60
2023-01-20T03:36:55.250Z,0.50
2023-01-20T03:39:23.281Z,0.40
2023-01-20T03:41:50.646Z,0.40
2023-01-20T03:44:44.361Z,0.30
2023-01-20T03:47:19.296Z,0.50
2023-01-20T03:49:56.643Z,2.33
2023-01-20T03:52:47.800Z,1.17
2023-01-20T03:55:29.202Z,0.60
2023-01-20T03:57:59.961Z,0.60
2023-01-20T04:00:29.496Z,0.40
2023-01-20T04:02:59.924Z,0.37
2023-01-20T04:05:28.202Z,0.60
2023-01-20T04:07:57.489Z,0.60
2023-01-20T04:10:26.362Z,0.70
2023-01-20T04:12:53.880Z,0.57
2023-01-20T04:15:22.565Z,0.60
2023-01-20T04:17:50.046Z,0.77
2023-01-20T04:20:17.961Z,0.60
2023-01-20T04:22:50.043Z,0.70
2023-01-20T04:25:26.252Z,0.70
2023-01-20T04:27:53.859Z,0.60
2023-01-20T04:30:21.464Z,0.53
2023-01-20T04:32:48.888Z,0.57
2023-01-20T04:35:18.279Z,0.30
2023-01-20T04:37:45.723Z,0.57
2023-01-20T04:40:13.195Z,1.00
2023-01-20T04:42:40.786Z,4.50
2023-01-20T04:45:08.396Z,3.80
2023-01-20T04:47:35.690Z,2.87
2023-01-20T04:50:03.041Z,0.80
2023-01-20T04:52:30.407Z,0.60
2023-01-20T04:54:57.884Z,0.90
2023-01-20T04:57:25.248Z,0.77
2023-01-20T04:59:52.682Z,0.40
2023-01-20T05:02:20.150Z,0.70
2023-01-20T05:04:47.615Z,0.50
2023-01-20T05:07:14.923Z,0.90
2023-01-20T05:09:42.211Z,0.50
2023-01-20T05:12:09.483Z,0.70
2023-01-20T05:14:37.112Z,0.60
2023-01-20T05:17:04.515Z,0.70
2023-01-20T05:19:31.985Z,1.97
2023-01-20T05:22:00.591Z,0.93
2023-01-20T05:24:27.920Z,0.87
2023-01-20T05:26:55.263Z,0.83
2023-01-20T05:29:22.645Z,0.60
2023-01-20T05:31:49.992Z,0.73
2023-01-20T05:34:17.380Z,0.60
2023-01-20T05:36:44.743Z,0.87
2023-01-20T05:39:12.204Z,0.50
2023-01-20T05:41:39.565Z,0.83
2023-01-20T05:44:07.125Z,0.73
2023-01-20T05:46:34.449Z,1.00
2023-01-20T05:49:03.292Z,0.80
2023-01-20T05:51:30.842Z,1.57
2023-01-20T05:53:58.261Z,0.90
2023-01-20T05:56:25.571Z,0.87
2023-01-20T05:58:56.449Z,0.97
2023-01-20T06:01:24.175Z,1.27
2023-01-20T06:03:51.657Z,1.30
2023-01-20T06:06:19.297Z,1.10
2023-01-20T06:08:46.860Z,0.90
2023-01-20T06:11:14.962Z,0.90
2023-01-20T06:13:43.583Z,0.80
2023-01-20T06:16:10.970Z,0.60
2023-01-20T06:18:38.601Z,6.33
2023-01-20T06:21:06.209Z,12.30
2023-01-20T06:23:33.731Z,4.13
2023-01-20T06:26:11.408Z,1.10
2023-01-20T06:28:38.964Z,1.20
2023-01-20T06:31:13.843Z,1.67
2023-01-20T06:33:41.654Z,1.43
2023-01-20T06:36:11.072Z,1.47
2023-01-20T06:38:38.524Z,1.33
2023-01-20T06:41:07.509Z,1.20
2023-01-20T06:43:36.125Z,1.73
2023-01-20T06:46:04.691Z,1.70
2023-01-20T06:48:32.476Z,1.53
2023-01-20T06:51:03.605Z,0.77
2023-01-20T06:53:31.207Z,1.60
2023-01-20T06:55:59.513Z,1.40
2023-01-20T06:58:27.723Z,2.20
2023-01-20T07:00:56.314Z,2.80
2023-01-20T07:03:23.892Z,2.50
2023-01-20T07:06:14.426Z,1.60
2023-01-20T07:08:43.129Z,1.20
2023-01-20T07:11:10.729Z,1.77
2023-01-20T07:13:38.085Z,3.03
2023-01-20T07:16:05.665Z,1.60
2023-01-20T07:18:33.043Z,1.73
2023-01-20T07:21:00.628Z,1.77
2023-01-20T07:23:28.782Z,1.80
2023-01-20T07:26:00.045Z,1.40
2023-01-20T07:28:27.661Z,2.67
2023-01-20T07:30:55.441Z,3.30
2023-01-20T07:33:22.948Z,2.17
2023-01-20T07:35:54.379Z,4.00
2023-01-20T07:38:22.133Z,4.03
2023-01-20T07:40:49.586Z,1.57
2023-01-20T07:43:17.002Z,2.33
2023-01-20T07:45:44.380Z,2.57
2023-01-20T07:48:11.953Z,4.07
2023-01-20T07:50:39.292Z,2.03
2023-01-20T07:53:06.971Z,2.30
2023-01-20T07:55:34.605Z,2.57
2023-01-20T07:58:02.364Z,5.47
2023-01-20T08:00:29.801Z,5.47
2023-01-20T08:02:57.131Z,6.80
2023-01-20T08:05:24.402Z,2.90
2023-01-20T08:07:52.577Z,2.30
2023-01-20T08:10:20.220Z,3.33
2023-01-20T08:12:47.778Z,2.63
2023-01-20T08:15:15.588Z,2.00
2023-01-20T08:17:43.165Z,1.70
2023-01-20T08:20:11.050Z,3.20
2023-01-20T08:22:38.327Z,2.43
2023-01-20T08:25:05.911Z,2.23
2023-01-20T08:27:33.398Z,2.10
2023-01-20T08:30:00.765Z,1.80
2023-01-20T08:32:28.130Z,1.77
2023-01-20T08:34:55.534Z,1.97
2023-01-20T08:37:23.908Z,1.20
2023-01-20T08:39:51.422Z,1.50
2023-01-20T08:42:19.124Z,2.10
2023-01-20T08:44:47.602Z,2.43
2023-01-20T08:47:14.966Z,2.60
2023-01-20T08:49:43.049Z,1.83
2023-01-20T08:52:12.199Z,1.70
2023-01-20T08:54:39.738Z,1.50
2023-01-20T08:57:07.332Z,2.77
2023-01-20T08:59:34.770Z,2.70
2023-01-20T09:02:02.174Z,2.90
2023-01-20T09:04:30.887Z,4.27
2023-01-20T09:06:58.311Z,2.70
2023-01-20T09:09:25.796Z,2.00
2023-01-20T09:11:53.266Z,2.03
2023-01-20T09:14:21.628Z,1.80
2023-01-20T09:16:49.146Z,1.80
2023-01-20T09:19:16.605Z,2.17
2023-01-20T09:21:44.378Z,1.60
2023-01-20T09:24:12.012Z,1.53
2023-01-20T09:26:39.491Z,1.47
2023-01-20T09:29:10.649Z,1.50
2023-01-20T09:31:44.670Z,1.73
2023-01-20T09:34:19.924Z,1.97
2023-01-20T09:36:50.692Z,1.97
2023-01-20T09:39:37.004Z,2.53
2023-01-20T09:42:46.001Z,2.93
2023-01-20T09:45:25.687Z,3.00
2023-01-20T09:47:55.160Z,2.70
2023-01-20T09:50:46.849Z,3.00
2023-01-20T09:53:17.103Z,1.93
2023-01-20T09:55:44.455Z,1.80
2023-01-20T09:58:17.674Z,2.30
2023-01-20T10:00:48.668Z,2.00
2023-01-20T10:03:22.069Z,2.23
2023-01-20T10:05:51.021Z,2.40
2023-01-20T10:08:22.069Z,2.27
2023-01-20T10:10:52.373Z,3.10
2023-01-20T10:13:22.968Z,2.53
2023-01-20T10:15:57.695Z,2.23
2023-01-20T10:18:28.570Z,2.47
2023-01-20T10:21:07.962Z,2.20
2023-01-20T10:23:41.521Z,1.90
2023-01-20T10:26:20.193Z,2.60
2023-01-20T10:28:52.564Z,2.07
2023-01-20T10:31:27.000Z,1.80
2023-01-20T10:33:56.724Z,1.60
2023-01-20T10:36:30.083Z,1.87
2023-01-20T10:38:58.195Z,1.43
2023-01-20T10:41:31.648Z,1.50
2023-01-20T10:43:59.884Z,0.90
2023-01-20T10:46:39.180Z,0.87
2023-01-20T10:49:18.907Z,0.93
2023-01-20T10:52:05.119Z,0.80
2023-01-20T10:54:47.274Z,0.57
2023-01-20T10:57:16.143Z,0.60
2023-01-20T10:59:48.728Z,1.13
2023-01-20T11:02:26.477Z,1.20
2023-01-20T11:04:56.032Z,0.50
2023-01-20T11:07:23.743Z,0.67
2023-01-20T11:09:51.143Z,0.50
2023-01-20T11:12:21.109Z,0.90
2023-01-20T11:14:49.005Z,0.70
2023-01-20T11:17:18.551Z,0.50
2023-01-20T11:19:47.496Z,0.50
2023-01-20T11:22:20.837Z,0.70
2023-01-20T11:24:48.688Z,0.60
2023-01-20T11:27:21.405Z,0.70
2023-01-20T11:30:02.317Z,0.67
2023-01-20T11:32:37.192Z,0.60
2023-01-20T11:35:27.689Z,0.50
2023-01-20T11:37:54.996Z,0.53
2023-01-20T11:40:24.334Z,0.50
2023-01-20T11:42:52.944Z,0.50
2023-01-20T11:45:23.081Z,0.50
2023-01-20T11:48:01.561Z,0.47
2023-01-20T11:50:56.906Z,0.57
2023-01-20T11:53:25.811Z,0.50
2023-01-20T11:55:58.134Z,0.50
2023-01-20T11:58:28.516Z,0.40
2023-01-20T12:01:06.194Z,0.47
2023-01-20T12:03:36.294Z,0.87
2023-01-20T12:06:18.961Z,0.60
2023-01-20T12:09:01.907Z,0.70
2023-01-20T12:11:35.136Z,0.60
2023-01-20T12:14:20.582Z,0.60
2023-01-20T12:16:52.058Z,0.40
2023-01-20T12:19:20.026Z,0.80
2023-01-20T12:21:51.688Z,0.40
2023-01-20T12:24:30.136Z,0.90
2023-01-20T12:27:03.269Z,0.70
2023-01-20T12:29:36.168Z,0.63
2023-01-20T12:32:04.051Z,0.60
2023-01-20T12:34:32.078Z,0.63
2023-01-20T12:37:18.131Z,0.70
2023-01-20T12:40:04.680Z,0.70
2023-01-20T12:42:40.644Z,0.60
2023-01-20T12:45:11.005Z,0.73
2023-01-20T12:47:50.604Z,0.80
2023-01-20T12:50:26.073Z,0.60
2023-01-20T12:53:05.083Z,0.70
2023-01-20T12:55:45.002Z,0.63
2023-01-20T12:58:27.202Z,0.73
2023-01-20T13:00:54.560Z,0.90
2023-01-20T13:03:40.698Z,0.83
2023-01-20T13:06:27.751Z,0.60
2023-01-20T13:09:10.373Z,0.80
2023-01-20T13:11:56.123Z,0.73
2023-01-20T13:14:44.326Z,0.70
2023-01-20T13:17:20.684Z,0.70
2023-01-20T13:19:49.403Z,0.67
2023-01-20T13:22:20.119Z,0.77
2023-01-20T13:24:49.071Z,0.80
2023-01-20T13:27:20.610Z,0.60
2023-01-20T13:29:50.680Z,0.67
2023-01-20T13:32:27.085Z,0.80
2023-01-20T13:34:54.871Z,1.10
2023-01-20T13:37:27.251Z,0.80
2023-01-20T13:39:55.381Z,1.10
2023-01-20T13:42:31.759Z,0.70
2023-01-20T13:45:14.960Z,0.87
2023-01-20T13:48:03.233Z,0.77
2023-01-20T13:50:32.322Z,0.87
2023-01-20T13:53:03.002Z,1.20
2023-01-20T13:55:32.493Z,0.80
2023-01-20T13:57:59.838Z,1.00
2023-01-20T14:00:27.125Z,0.93
2023-01-20T14:02:54.584Z,1.07
2023-01-20T14:05:29.005Z,1.00
2023-01-20T14:07:57.204Z,1.10
2023-01-20T14:10:24.802Z,0.90
2023-01-20T14:12:52.191Z,0.70
2023-01-20T14:15:35.623Z,1.10
2023-01-20T14:18:03.401Z,1.00
2023-01-20T14:20:31.086Z,1.17
2023-01-20T14:23:17.762Z,1.20
2023-01-20T14:25:57.537Z,0.93
2023-01-20T14:28:24.888Z,0.97
2023-01-20T14:31:06.637Z,0.83
2023-01-20T14:33:34.211Z,1.00
2023-01-20T14:36:06.444Z,0.90
2023-01-20T14:38:33.886Z,0.80
2023-01-20T14:41:01.343Z,0.90
2023-01-20T14:43:33.506Z,1.10
2023-01-20T14:46:00.972Z,1.00
2023-01-20T14:48:34.840Z,0.60
2023-01-20T14:51:04.407Z,0.90
2023-01-20T14:53:31.892Z,1.10
2023-01-20T14:56:03.683Z,0.80
2023-01-20T14:58:32.130Z,0.83
2023-01-20T15:01:01.862Z,1.00
2023-01-20T15:03:30.331Z,0.90
2023-01-20T15:06:00.435Z,0.97
2023-01-20T15:08:53.567Z,1.00
2023-01-20T15:11:25.964Z,0.83
2023-01-20T15:13:53.484Z,0.90
2023-01-20T15:16:25.542Z,0.80
2023-01-20T15:19:12.138Z,0.80
2023-01-20T15:21:40.008Z,0.90
2023-01-20T15:24:16.769Z,0.90
2023-01-20T15:26:45.157Z,1.00
2023-01-20T15:29:26.251Z,1.00
2023-01-20T15:31:55.108Z,1.00
2023-01-20T15:34:23.366Z,1.00
2023-01-20T15:36:51.483Z,1.10
2023-01-20T15:39:20.372Z,0.70
2023-01-20T15:41:48.804Z,1.40
2023-01-20T15:44:16.246Z,1.20
2023-01-20T15:46:43.501Z,0.80
2023-01-20T15:49:12.177Z,0.90
2023-01-20T15:51:39.653Z,1.33
2023-01-20T15:54:10.294Z,1.33
2023-01-20T15:56:40.264Z,1.20
2023-01-20T15:59:14.742Z,1.20
2023-01-20T16:01:42.424Z,1.07
2023-01-20T16:04:10.444Z,1.53
2023-01-20T16:06:38.167Z,1.00
2023-01-20T16:09:16.284Z,1.60
2023-01-20T16:11:43.645Z,1.07
2023-01-20T16:14:11.005Z,1.47
2023-01-20T16:16:38.401Z,1.67
2023-01-20T16:19:06.802Z,1.37
2023-01-20T16:21:34.242Z,1.37
2023-01-20T16:24:01.555Z,1.20
2023-01-20T16:26:29.642Z,2.00
2023-01-20T16:28:57.885Z,1.20
2023-01-20T16:31:26.601Z,1.53
2023-01-20T16:33:54.364Z,1.10
2023-01-20T16:36:23.503Z,1.17
2023-01-20T16:38:51.506Z,1.40
2023-01-20T16:41:23.429Z,1.70
2023-01-20T16:43:51.377Z,1.80
2023-01-20T16:46:23.770Z,1.00
2023-01-20T16:48:51.687Z,1.20
2023-01-20T16:51:20.202Z,1.20
2023-01-20T16:53:47.542Z,1.00
2023-01-20T16:56:15.971Z,1.13
2023-01-20T16:58:43.680Z,1.10
2023-01-20T17:01:12.403Z,0.97
2023-01-20T17:03:40.325Z,1.20
2023-01-20T17:06:17.332Z,1.00
2023-01-20T17:08:48.865Z,1.17
2023-01-20T17:11:26.683Z,1.20
2023-01-20T17:13:54.465Z,0.90
2023-01-20T17:16:22.347Z,12.50
2023-01-20T17:18:53.245Z,5.07
2023-01-20T17:21:21.376Z,9.13
2023-01-20T17:23:55.815Z,5.83
2023-01-20T17:26:23.668Z,2.80
2023-01-20T17:28:54.842Z,2.00
2023-01-20T17:31:22.793Z,1.87
2023-01-20T17:33:50.687Z,1.20
2023-01-20T17:36:18.286Z,1.00
2023-01-20T17:38:45.976Z,1.67
2023-01-20T17:41:14.374Z,1.70
2023-01-20T17:43:43.484Z,2.13
2023-01-20T17:46:16.732Z,1.40
2023-01-20T17:48:44.652Z,1.63
2023-01-20T17:51:13.195Z,1.70
2023-01-20T17:53:41.023Z,2.20
2023-01-20T17:56:13.797Z,1.83
2023-01-20T17:58:42.358Z,1.20
2023-01-20T18:01:11.143Z,1.40
2023-01-20T18:03:43.228Z,2.03
2023-01-20T18:06:14.643Z,2.03
2023-01-20T18:08:42.197Z,3.13
2023-01-20T18:11:10.972Z,4.00
2023-01-20T18:13:38.456Z,3.30
2023-01-20T18:16:07.328Z,3.70
2023-01-20T18:18:34.845Z,3.13
2023-01-20T18:21:11.409Z,2.93
2023-01-20T18:23:40.451Z,3.13
2023-01-20T18:26:08.596Z,3.30
2023-01-20T18:28:36.882Z,3.17
2023-01-20T18:31:08.589Z,3.10
2023-01-20T18:33:40.411Z,2.40
2023-01-20T18:36:09.095Z,3.50
2023-01-20T18:38:36.756Z,3.00
2023-01-20T18:41:04.099Z,3.20
2023-01-20T18:43:31.428Z,3.10
2023-01-20T18:45:58.849Z,3.50
2023-01-20T18:48:26.633Z,3.60
2023-01-20T18:50:59.770Z,3.23
2023-01-20T18:53:27.937Z,2.73
2023-01-20T18:56:01.888Z,2.77
2023-01-20T18:58:29.286Z,3.00
2023-01-20T19:01:06.350Z,3.07
2023-01-20T19:03:34.373Z,4.17
2023-01-20T19:06:05.285Z,3.77
2023-01-20T19:08:32.793Z,3.03
2023-01-20T19:11:01.205Z,3.10
2023-01-20T19:13:28.687Z,3.10
2023-01-20T19:15:56.146Z,3.77
2023-01-20T19:18:23.805Z,3.73
2023-01-20T19:20:51.406Z,2.80
2023-01-20T19:23:19.003Z,3.40
2023-01-20T19:25:46.363Z,3.43
2023-01-20T19:28:14.640Z,3.67
2023-01-20T19:30:42.247Z,2.70
2023-01-20T19:33:12.326Z,2.60
2023-01-20T19:35:43.525Z,3.10
2023-01-20T19:38:11.031Z,2.63
2023-01-20T19:40:39.783Z,2.73
2023-01-20T19:43:07.041Z,3.27
2023-01-20T19:45:45.397Z,2.40
2023-01-20T19:48:13.214Z,2.70
2023-01-20T19:50:40.531Z,3.37
2023-01-20T19:53:07.772Z,3.87
2023-01-20T19:55:40.334Z,4.30
2023-01-20T19:58:07.829Z,3.13
2023-01-20T20:00:35.180Z,3.70
2023-01-20T20:03:04.712Z,2.90
2023-01-20T20:05:32.923Z,3.17
2023-01-20T20:08:00.425Z,3.00
2023-01-20T20:10:27.778Z,2.70
2023-01-20T20:12:55.167Z,2.63
2023-01-20T20:15:22.545Z,2.80
2023-01-20T20:17:50.007Z,3.03
2023-01-20T20:20:17.831Z,3.03
2023-01-20T20:22:48.606Z,4.47
2023-01-20T20:25:16.145Z,4.07
2023-01-20T20:27:43.586Z,3.93
2023-01-20T20:30:11.339Z,3.53
2023-01-20T20:32:38.688Z,3.23
2023-01-20T20:35:06.458Z,2.87
2023-01-20T20:37:34.406Z,3.00
2023-01-20T20:40:01.785Z,3.23
2023-01-20T20:42:30.403Z,2.87
2023-01-20T20:44:57.769Z,3.30
2023-01-20T20:47:27.129Z,3.30
2023-01-20T20:49:54.845Z,3.23
2023-01-20T20:52:22.310Z,3.70
2023-01-20T20:54:49.845Z,3.57
2023-01-20T20:57:17.623Z,3.60
2023-01-20T20:59:58.638Z,3.20
2023-01-20T21:02:26.857Z,4.50
2023-01-20T21:04:55.088Z,3.13
2023-01-20T21:07:22.545Z,3.23
2023-01-20T21:09:49.956Z,2.50
2023-01-20T21:12:18.177Z,3.10
2023-01-20T21:14:45.549Z,3.13
2023-01-20T21:17:13.006Z,3.50
2023-01-20T21:19:42.965Z,3.40
2023-01-20T21:22:10.363Z,3.10
2023-01-20T21:24:37.650Z,2.67
2023-01-20T21:27:04.988Z,3.53
2023-01-20T21:29:32.411Z,3.00
2023-01-20T21:31:59.767Z,3.43
2023-01-20T21:34:27.102Z,3.27
2023-01-20T21:36:54.728Z,3.57
2023-01-20T21:39:22.147Z,2.53
2023-01-20T21:41:49.572Z,3.10
2023-01-20T21:44:29.086Z,4.33
2023-01-20T21:46:57.508Z,4.60
2023-01-20T21:49:43.965Z,3.60
2023-01-20T21:52:30.683Z,2.67
2023-01-20T21:54:58.431Z,3.70
2023-01-20T21:57:35.008Z,4.07
2023-01-20T22:00:03.330Z,3.60
2023-01-20T22:02:31.079Z,3.00
2023-01-20T22:05:01.881Z,2.80
2023-01-20T22:07:32.518Z,2.20
2023-01-20T22:10:00.214Z,2.70
2023-01-20T22:12:29.124Z,2.30
2023-01-20T22:14:56.479Z,2.43
2023-01-20T22:17:23.881Z,2.50
2023-01-20T22:19:51.233Z,2.73
2023-01-20T22:22:19.888Z,2.27
2023-01-20T22:24:47.167Z,2.63
2023-01-20T22:27:14.448Z,2.43
2023-01-20T22:29:41.891Z,2.87
2023-01-20T22:32:09.368Z,3.10
2023-01-20T22:34:36.645Z,2.80
2023-01-20T22:37:04.098Z,2.37
2023-01-20T22:39:31.671Z,2.43
2023-01-20T22:41:59.052Z,2.00
2023-01-20T22:44:26.611Z,2.10
2023-01-20T22:46:54.056Z,2.17
2023-01-20T22:49:21.454Z,2.30
2023-01-20T22:51:48.957Z,2.10
2023-01-20T22:54:16.330Z,1.77
2023-01-20T22:56:43.563Z,1.97
2023-01-20T22:59:11.589Z,1.80
2023-01-20T23:01:38.974Z,1.90
2023-01-20T23:04:07.218Z,2.10
2023-01-20T23:06:35.995Z,1.93
2023-01-20T23:09:06.137Z,2.00
2023-01-20T23:11:34.094Z,2.33
2023-01-20T23:14:01.606Z,2.23
2023-01-20T23:16:29.283Z,1.93
2023-01-20T23:18:57.911Z,1.90
2023-01-20T23:21:25.197Z,2.10
2023-01-20T23:23:55.062Z,2.37
2023-01-20T23:26:26.372Z,2.03
2023-01-20T23:28:54.119Z,1.90
2023-01-20T23:31:22.251Z,1.80
2023-01-20T23:33:49.642Z,2.33
2023-01-20T23:36:21.371Z,2.30
2023-01-20T23:38:48.862Z,2.20
2023-01-20T23:41:16.921Z,2.13
2023-01-20T23:43:46.845Z,2.10
2023-01-20T23:46:14.348Z,1.47
2023-01-20T23:48:42.120Z,2.27
2023-01-20T23:51:10.476Z,1.70
2023-01-20T23:53:38.981Z,2.17
2023-01-20T23:56:08.130Z,1.90
2023-01-20T23:58:35.645Z,1.80
